sensor_id;sensor_type;location;lat;lon;timestamp;temperature;humidity
32877;DHT22;19226;51.600;8.034;2023-07-13T00:00:18;20.10;99.90
32877;DHT22;19226;51.600;8.034;2023-07-13T00:03:03;20.10;99.90
32877;DHT22;19226;51.600;8.034;2023-07-13T00:05:57;20.00;99.90
32877;DHT22;19226;51.600;8.034;2023-07-13T00:08:42;19.90;99.90
32877;DHT22;19226;51.600;8.034;2023-07-13T00:11:27;19.90;99.90
32877;DHT22;19226;51.600;8.034;2023-07-13T00:14:12;19.80;99.90
32877;DHT22;19226;51.600;8.034;2023-07-13T00:16:56;19.80;99.90
32877;DHT22;19226;51.600;8.034;2023-07-13T00:19:41;19.70;99.90
32877;DHT22;19226;51.600;8.034;2023-07-13T00:22:25;19.70;99.90
32877;DHT22;19226;51.600;8.034;2023-07-13T00:25:11;19.60;99.90
32877;DHT22;19226;51.600;8.034;2023-07-13T00:27:56;19.60;99.90
32877;DHT22;19226;51.600;8.034;2023-07-13T00:30:40;19.50;99.90
32877;DHT22;19226;51.600;8.034;2023-07-13T00:33:26;19.50;99.90
32877;DHT22;19226;51.600;8.034;2023-07-13T00:36:11;19.50;99.90
32877;DHT22;19226;51.600;8.034;2023-07-13T00:38:56;19.50;99.90
32877;DHT22;19226;51.600;8.034;2023-07-13T00:41:42;19.40;99.90
32877;DHT22;19226;51.600;8.034;2023-07-13T00:44:28;19.30;99.90
32877;DHT22;19226;51.600;8.034;2023-07-13T00:47:13;19.40;99.90
32877;DHT22;19226;51.600;8.034;2023-07-13T00:49:59;19.30;99.90
32877;DHT22;19226;51.600;8.034;2023-07-13T00:52:47;19.20;99.90
32877;DHT22;19226;51.600;8.034;2023-07-13T00:55:32;19.10;99.90
32877;DHT22;19226;51.600;8.034;2023-07-13T00:58:17;19.00;99.90
32877;DHT22;19226;51.600;8.034;2023-07-13T01:01:02;19.00;99.90
32877;DHT22;19226;51.600;8.034;2023-07-13T01:03:47;19.00;99.90
32877;DHT22;19226;51.600;8.034;2023-07-13T01:06:32;18.90;99.90
32877;DHT22;19226;51.600;8.034;2023-07-13T01:09:17;18.90;99.90
32877;DHT22;19226;51.600;8.034;2023-07-13T01:12:03;18.90;99.90
32877;DHT22;19226;51.600;8.034;2023-07-13T01:14:48;18.80;99.90
32877;DHT22;19226;51.600;8.034;2023-07-13T01:17:34;18.80;99.90
32877;DHT22;19226;51.600;8.034;2023-07-13T01:20:18;18.80;99.90
32877;DHT22;19226;51.600;8.034;2023-07-13T01:23:05;18.70;99.90
32877;DHT22;19226;51.600;8.034;2023-07-13T01:25:51;18.70;99.90
32877;DHT22;19226;51.600;8.034;2023-07-13T01:28:36;18.70;99.90
32877;DHT22;19226;51.600;8.034;2023-07-13T01:31:22;18.70;99.90
32877;DHT22;19226;51.600;8.034;2023-07-13T01:34:06;18.60;99.90
32877;DHT22;19226;51.600;8.034;2023-07-13T01:36:52;18.60;99.90
32877;DHT22;19226;51.600;8.034;2023-07-13T01:39:37;18.60;99.90
32877;DHT22;19226;51.600;8.034;2023-07-13T01:42:22;18.60;99.90
32877;DHT22;19226;51.600;8.034;2023-07-13T01:45:07;18.50;99.90
32877;DHT22;19226;51.600;8.034;2023-07-13T01:47:52;18.40;99.90
32877;DHT22;19226;51.600;8.034;2023-07-13T01:50:36;18.30;99.90
32877;DHT22;19226;51.600;8.034;2023-07-13T01:53:21;18.30;99.90
32877;DHT22;19226;51.600;8.034;2023-07-13T01:56:06;18.30;99.90
32877;DHT22;19226;51.600;8.034;2023-07-13T01:58:52;18.30;99.90
32877;DHT22;19226;51.600;8.034;2023-07-13T02:01:36;18.20;99.90
32877;DHT22;19226;51.600;8.034;2023-07-13T02:04:20;18.20;99.90
32877;DHT22;19226;51.600;8.034;2023-07-13T02:07:05;18.20;99.90
32877;DHT22;19226;51.600;8.034;2023-07-13T02:09:50;18.10;99.90
32877;DHT22;19226;51.600;8.034;2023-07-13T02:12:34;18.00;99.90
32877;DHT22;19226;51.600;8.034;2023-07-13T02:15:19;17.90;99.90
32877;DHT22;19226;51.600;8.034;2023-07-13T02:18:04;17.90;99.90
32877;DHT22;19226;51.600;8.034;2023-07-13T02:20:49;17.90;99.90
32877;DHT22;19226;51.600;8.034;2023-07-13T02:23:33;17.80;99.90
32877;DHT22;19226;51.600;8.034;2023-07-13T02:26:18;17.80;99.90
32877;DHT22;19226;51.600;8.034;2023-07-13T02:29:03;17.80;99.90
32877;DHT22;19226;51.600;8.034;2023-07-13T02:31:48;17.80;99.90
32877;DHT22;19226;51.600;8.034;2023-07-13T02:34:33;17.70;99.90
32877;DHT22;19226;51.600;8.034;2023-07-13T02:37:18;17.70;99.90
32877;DHT22;19226;51.600;8.034;2023-07-13T02:40:03;17.60;99.90
32877;DHT22;19226;51.600;8.034;2023-07-13T02:42:53;17.60;99.90
32877;DHT22;19226;51.600;8.034;2023-07-13T02:45:38;17.60;99.90
32877;DHT22;19226;51.600;8.034;2023-07-13T02:48:27;17.60;99.90
32877;DHT22;19226;51.600;8.034;2023-07-13T02:51:12;17.60;99.90
32877;DHT22;19226;51.600;8.034;2023-07-13T02:53:57;17.60;99.90
32877;DHT22;19226;51.600;8.034;2023-07-13T02:56:42;17.60;99.90
32877;DHT22;19226;51.600;8.034;2023-07-13T02:59:28;17.60;99.90
32877;DHT22;19226;51.600;8.034;2023-07-13T03:02:12;17.60;99.90
32877;DHT22;19226;51.600;8.034;2023-07-13T03:04:58;17.50;99.90
32877;DHT22;19226;51.600;8.034;2023-07-13T03:07:42;17.50;99.90
32877;DHT22;19226;51.600;8.034;2023-07-13T03:10:29;17.50;99.90
32877;DHT22;19226;51.600;8.034;2023-07-13T03:13:14;17.40;99.90
32877;DHT22;19226;51.600;8.034;2023-07-13T03:16:01;17.40;99.90
32877;DHT22;19226;51.600;8.034;2023-07-13T03:18:47;17.40;99.90
32877;DHT22;19226;51.600;8.034;2023-07-13T03:21:32;17.40;99.90
32877;DHT22;19226;51.600;8.034;2023-07-13T03:24:17;17.30;99.90
32877;DHT22;19226;51.600;8.034;2023-07-13T03:27:04;17.30;99.90
32877;DHT22;19226;51.600;8.034;2023-07-13T03:29:50;17.30;99.90
32877;DHT22;19226;51.600;8.034;2023-07-13T03:32:36;17.20;99.90
32877;DHT22;19226;51.600;8.034;2023-07-13T03:35:21;17.10;99.90
32877;DHT22;19226;51.600;8.034;2023-07-13T03:38:05;17.10;99.90
32877;DHT22;19226;51.600;8.034;2023-07-13T03:40:50;17.00;99.90
32877;DHT22;19226;51.600;8.034;2023-07-13T03:43:35;17.00;99.90
32877;DHT22;19226;51.600;8.034;2023-07-13T03:46:19;17.00;99.90
32877;DHT22;19226;51.600;8.034;2023-07-13T03:49:05;17.00;99.90
32877;DHT22;19226;51.600;8.034;2023-07-13T03:51:50;17.00;99.90
32877;DHT22;19226;51.600;8.034;2023-07-13T03:54:35;17.00;99.90
32877;DHT22;19226;51.600;8.034;2023-07-13T03:57:20;17.00;99.90
32877;DHT22;19226;51.600;8.034;2023-07-13T04:00:05;17.00;99.90
32877;DHT22;19226;51.600;8.034;2023-07-13T04:03:00;17.00;99.90
32877;DHT22;19226;51.600;8.034;2023-07-13T04:05:44;17.00;99.90
32877;DHT22;19226;51.600;8.034;2023-07-13T04:08:33;17.00;99.90
32877;DHT22;19226;51.600;8.034;2023-07-13T04:11:20;17.00;99.90
32877;DHT22;19226;51.600;8.034;2023-07-13T04:14:05;17.00;99.90
32877;DHT22;19226;51.600;8.034;2023-07-13T04:16:49;16.90;99.90
32877;DHT22;19226;51.600;8.034;2023-07-13T04:19:34;16.90;99.90
32877;DHT22;19226;51.600;8.034;2023-07-13T04:22:18;16.90;99.90
32877;DHT22;19226;51.600;8.034;2023-07-13T04:25:03;16.90;99.90
32877;DHT22;19226;51.600;8.034;2023-07-13T04:27:49;16.90;99.90
32877;DHT22;19226;51.600;8.034;2023-07-13T04:30:34;17.00;99.90
32877;DHT22;19226;51.600;8.034;2023-07-13T04:33:19;17.00;99.90
32877;DHT22;19226;51.600;8.034;2023-07-13T04:36:08;17.00;99.90
32877;DHT22;19226;51.600;8.034;2023-07-13T04:38:53;17.10;99.90
32877;DHT22;19226;51.600;8.034;2023-07-13T04:41:38;17.10;99.90
32877;DHT22;19226;51.600;8.034;2023-07-13T04:44:22;17.10;99.90
32877;DHT22;19226;51.600;8.034;2023-07-13T04:47:07;17.20;99.90
32877;DHT22;19226;51.600;8.034;2023-07-13T04:49:51;17.30;99.90
32877;DHT22;19226;51.600;8.034;2023-07-13T04:52:36;17.30;99.90
32877;DHT22;19226;51.600;8.034;2023-07-13T04:55:21;17.30;99.90
32877;DHT22;19226;51.600;8.034;2023-07-13T04:58:06;17.40;99.90
32877;DHT22;19226;51.600;8.034;2023-07-13T05:00:51;17.50;99.90
32877;DHT22;19226;51.600;8.034;2023-07-13T05:03:36;17.50;99.90
32877;DHT22;19226;51.600;8.034;2023-07-13T05:06:21;17.50;99.90
32877;DHT22;19226;51.600;8.034;2023-07-13T05:09:06;17.50;99.90
32877;DHT22;19226;51.600;8.034;2023-07-13T05:11:51;17.60;99.90
32877;DHT22;19226;51.600;8.034;2023-07-13T05:14:36;17.60;99.90
32877;DHT22;19226;51.600;8.034;2023-07-13T05:17:20;17.60;99.90
32877;DHT22;19226;51.600;8.034;2023-07-13T05:20:06;17.60;99.90
32877;DHT22;19226;51.600;8.034;2023-07-13T05:22:51;17.70;99.90
32877;DHT22;19226;51.600;8.034;2023-07-13T05:25:36;17.80;99.90
32877;DHT22;19226;51.600;8.034;2023-07-13T05:28:21;17.80;99.90
32877;DHT22;19226;51.600;8.034;2023-07-13T05:31:08;17.80;99.90
32877;DHT22;19226;51.600;8.034;2023-07-13T05:33:52;17.90;99.90
32877;DHT22;19226;51.600;8.034;2023-07-13T05:36:37;18.00;99.90
32877;DHT22;19226;51.600;8.034;2023-07-13T05:39:21;18.10;99.90
32877;DHT22;19226;51.600;8.034;2023-07-13T05:42:07;18.30;99.90
32877;DHT22;19226;51.600;8.034;2023-07-13T05:44:51;18.30;99.90
32877;DHT22;19226;51.600;8.034;2023-07-13T05:47:36;18.50;99.90
32877;DHT22;19226;51.600;8.034;2023-07-13T05:50:21;18.50;99.90
32877;DHT22;19226;51.600;8.034;2023-07-13T05:53:06;18.60;99.90
32877;DHT22;19226;51.600;8.034;2023-07-13T05:55:50;18.60;99.90
32877;DHT22;19226;51.600;8.034;2023-07-13T05:58:38;18.70;99.90
32877;DHT22;19226;51.600;8.034;2023-07-13T06:01:22;18.80;99.90
32877;DHT22;19226;51.600;8.034;2023-07-13T06:04:08;18.80;99.90
32877;DHT22;19226;51.600;8.034;2023-07-13T06:06:52;18.90;99.90
32877;DHT22;19226;51.600;8.034;2023-07-13T06:09:37;18.80;99.90
32877;DHT22;19226;51.600;8.034;2023-07-13T06:12:22;18.90;99.90
32877;DHT22;19226;51.600;8.034;2023-07-13T06:15:07;19.00;99.90
32877;DHT22;19226;51.600;8.034;2023-07-13T06:17:52;19.00;99.90
32877;DHT22;19226;51.600;8.034;2023-07-13T06:20:36;19.10;99.90
32877;DHT22;19226;51.600;8.034;2023-07-13T06:23:21;19.20;99.90
32877;DHT22;19226;51.600;8.034;2023-07-13T06:26:07;19.20;99.90
32877;DHT22;19226;51.600;8.034;2023-07-13T06:28:52;19.40;99.90
32877;DHT22;19226;51.600;8.034;2023-07-13T06:31:37;19.50;99.90
32877;DHT22;19226;51.600;8.034;2023-07-13T06:34:21;19.60;99.90
32877;DHT22;19226;51.600;8.034;2023-07-13T06:37:06;19.60;99.90
32877;DHT22;19226;51.600;8.034;2023-07-13T06:39:51;19.70;99.90
32877;DHT22;19226;51.600;8.034;2023-07-13T06:42:35;19.90;99.90
32877;DHT22;19226;51.600;8.034;2023-07-13T06:45:20;20.00;99.90
32877;DHT22;19226;51.600;8.034;2023-07-13T06:48:04;20.00;99.90
32877;DHT22;19226;51.600;8.034;2023-07-13T06:50:50;20.20;99.90
32877;DHT22;19226;51.600;8.034;2023-07-13T06:53:35;20.30;99.90
32877;DHT22;19226;51.600;8.034;2023-07-13T06:56:20;20.40;99.90
32877;DHT22;19226;51.600;8.034;2023-07-13T06:59:04;20.50;99.90
32877;DHT22;19226;51.600;8.034;2023-07-13T07:01:49;20.60;99.90
32877;DHT22;19226;51.600;8.034;2023-07-13T07:04:33;20.50;99.90
32877;DHT22;19226;51.600;8.034;2023-07-13T07:07:18;20.50;99.90
32877;DHT22;19226;51.600;8.034;2023-07-13T07:10:03;20.50;99.90
32877;DHT22;19226;51.600;8.034;2023-07-13T07:12:47;20.60;99.90
32877;DHT22;19226;51.600;8.034;2023-07-13T07:15:32;20.60;99.90
32877;DHT22;19226;51.600;8.034;2023-07-13T07:18:17;20.80;99.90
32877;DHT22;19226;51.600;8.034;2023-07-13T07:21:03;20.90;99.90
32877;DHT22;19226;51.600;8.034;2023-07-13T07:23:48;20.90;99.90
32877;DHT22;19226;51.600;8.034;2023-07-13T07:26:33;21.10;99.90
32877;DHT22;19226;51.600;8.034;2023-07-13T07:29:17;21.10;99.90
32877;DHT22;19226;51.600;8.034;2023-07-13T07:32:02;21.30;99.90
32877;DHT22;19226;51.600;8.034;2023-07-13T07:34:47;21.40;99.90
32877;DHT22;19226;51.600;8.034;2023-07-13T07:37:31;21.50;99.90
32877;DHT22;19226;51.600;8.034;2023-07-13T07:40:16;21.50;99.90
32877;DHT22;19226;51.600;8.034;2023-07-13T07:43:00;21.50;99.90
32877;DHT22;19226;51.600;8.034;2023-07-13T07:45:45;21.50;99.90
32877;DHT22;19226;51.600;8.034;2023-07-13T07:48:30;21.60;99.90
32877;DHT22;19226;51.600;8.034;2023-07-13T07:51:15;21.80;99.90
32877;DHT22;19226;51.600;8.034;2023-07-13T07:54:00;21.90;99.90
32877;DHT22;19226;51.600;8.034;2023-07-13T07:56:44;22.00;99.90
32877;DHT22;19226;51.600;8.034;2023-07-13T07:59:29;22.20;99.90
32877;DHT22;19226;51.600;8.034;2023-07-13T08:02:13;22.30;99.90
32877;DHT22;19226;51.600;8.034;2023-07-13T08:04:58;22.30;99.90
32877;DHT22;19226;51.600;8.034;2023-07-13T08:07:42;22.30;99.90
32877;DHT22;19226;51.600;8.034;2023-07-13T08:10:27;22.20;99.90
32877;DHT22;19226;51.600;8.034;2023-07-13T08:13:11;22.40;99.90
32877;DHT22;19226;51.600;8.034;2023-07-13T08:15:56;22.70;99.90
32877;DHT22;19226;51.600;8.034;2023-07-13T08:18:40;22.90;99.90
32877;DHT22;19226;51.600;8.034;2023-07-13T08:21:25;22.90;99.90
32877;DHT22;19226;51.600;8.034;2023-07-13T08:24:10;22.90;99.90
32877;DHT22;19226;51.600;8.034;2023-07-13T08:26:54;23.10;99.90
32877;DHT22;19226;51.600;8.034;2023-07-13T08:29:39;23.20;99.90
32877;DHT22;19226;51.600;8.034;2023-07-13T08:32:24;23.40;99.90
32877;DHT22;19226;51.600;8.034;2023-07-13T08:35:08;23.50;99.90
32877;DHT22;19226;51.600;8.034;2023-07-13T08:37:53;23.40;99.90
32877;DHT22;19226;51.600;8.034;2023-07-13T08:40:38;23.40;99.90
32877;DHT22;19226;51.600;8.034;2023-07-13T08:43:28;23.50;99.90
32877;DHT22;19226;51.600;8.034;2023-07-13T08:46:20;23.70;99.90
32877;DHT22;19226;51.600;8.034;2023-07-13T08:49:15;23.80;99.90
32877;DHT22;19226;51.600;8.034;2023-07-13T08:52:11;23.90;99.90
32877;DHT22;19226;51.600;8.034;2023-07-13T08:54:58;24.00;99.90
32877;DHT22;19226;51.600;8.034;2023-07-13T08:57:50;24.10;99.90
32877;DHT22;19226;51.600;8.034;2023-07-13T09:00:46;24.20;99.90
32877;DHT22;19226;51.600;8.034;2023-07-13T09:03:52;24.20;99.90
32877;DHT22;19226;51.600;8.034;2023-07-13T09:15:31;24.40;99.90
32877;DHT22;19226;51.600;8.034;2023-07-13T09:18:35;24.60;99.90
32877;DHT22;19226;51.600;8.034;2023-07-13T09:21:41;24.70;99.90
32877;DHT22;19226;51.600;8.034;2023-07-13T09:24:41;24.70;99.90
32877;DHT22;19226;51.600;8.034;2023-07-13T09:27:39;24.50;99.90
32877;DHT22;19226;51.600;8.034;2023-07-13T09:33:29;24.70;99.90
32877;DHT22;19226;51.600;8.034;2023-07-13T09:36:32;24.80;99.90
32877;DHT22;19226;51.600;8.034;2023-07-13T09:42:15;24.80;99.90
32877;DHT22;19226;51.600;8.034;2023-07-13T09:45:02;24.90;99.90
32877;DHT22;19226;51.600;8.034;2023-07-13T09:48:03;24.90;99.90
32877;DHT22;19226;51.600;8.034;2023-07-13T09:50:48;25.10;99.90
32877;DHT22;19226;51.600;8.034;2023-07-13T09:53:32;25.20;99.90
32877;DHT22;19226;51.600;8.034;2023-07-13T09:56:22;25.10;99.90
32877;DHT22;19226;51.600;8.034;2023-07-13T09:59:21;25.10;99.90
32877;DHT22;19226;51.600;8.034;2023-07-13T10:05:14;24.90;99.90
32877;DHT22;19226;51.600;8.034;2023-07-13T10:08:00;25.00;99.90
32877;DHT22;19226;51.600;8.034;2023-07-13T10:10:45;25.10;99.90
32877;DHT22;19226;51.600;8.034;2023-07-13T10:13:36;25.10;99.90
32877;DHT22;19226;51.600;8.034;2023-07-13T10:16:22;25.10;99.90
32877;DHT22;19226;51.600;8.034;2023-07-13T10:19:28;25.10;99.90
32877;DHT22;19226;51.600;8.034;2023-07-13T10:22:28;25.10;99.90
32877;DHT22;19226;51.600;8.034;2023-07-13T10:25:25;25.30;99.90
32877;DHT22;19226;51.600;8.034;2023-07-13T10:28:17;25.40;99.90
32877;DHT22;19226;51.600;8.034;2023-07-13T10:31:10;25.60;99.90
32877;DHT22;19226;51.600;8.034;2023-07-13T10:33:55;25.70;99.90
32877;DHT22;19226;51.600;8.034;2023-07-13T10:36:43;26.00;99.90
32877;DHT22;19226;51.600;8.034;2023-07-13T10:39:28;26.20;99.90
32877;DHT22;19226;51.600;8.034;2023-07-13T10:42:24;26.20;99.90
32877;DHT22;19226;51.600;8.034;2023-07-13T10:45:18;26.30;99.90
32877;DHT22;19226;51.600;8.034;2023-07-13T10:48:04;26.50;99.90
32877;DHT22;19226;51.600;8.034;2023-07-13T10:50:51;26.60;99.90
32877;DHT22;19226;51.600;8.034;2023-07-13T10:53:39;26.60;99.90
32877;DHT22;19226;51.600;8.034;2023-07-13T10:56:29;26.60;99.90
32877;DHT22;19226;51.600;8.034;2023-07-13T11:02:15;26.20;99.90
32877;DHT22;19226;51.600;8.034;2023-07-13T11:08:35;26.40;99.90
32877;DHT22;19226;51.600;8.034;2023-07-13T11:14:30;26.50;99.90
32877;DHT22;19226;51.600;8.034;2023-07-13T11:20:37;26.30;99.90
32877;DHT22;19226;51.600;8.034;2023-07-13T11:23:28;26.20;99.90
32877;DHT22;19226;51.600;8.034;2023-07-13T11:29:35;25.80;99.90
32877;DHT22;19226;51.600;8.034;2023-07-13T11:32:29;25.70;99.90
32877;DHT22;19226;51.600;8.034;2023-07-13T11:35:22;25.80;99.90
32877;DHT22;19226;51.600;8.034;2023-07-13T11:38:30;25.70;99.90
32877;DHT22;19226;51.600;8.034;2023-07-13T11:41:22;25.90;99.90
32877;DHT22;19226;51.600;8.034;2023-07-13T11:44:17;25.80;99.90
32877;DHT22;19226;51.600;8.034;2023-07-13T11:47:11;25.90;99.90
32877;DHT22;19226;51.600;8.034;2023-07-13T11:49:56;25.90;99.90
32877;DHT22;19226;51.600;8.034;2023-07-13T11:52:40;26.00;99.90
32877;DHT22;19226;51.600;8.034;2023-07-13T11:55:25;25.90;99.90
32877;DHT22;19226;51.600;8.034;2023-07-13T11:58:11;26.00;99.90
32877;DHT22;19226;51.600;8.034;2023-07-13T12:00:58;26.00;99.90
32877;DHT22;19226;51.600;8.034;2023-07-13T12:03:45;26.00;99.90
32877;DHT22;19226;51.600;8.034;2023-07-13T12:06:32;25.90;99.90
32877;DHT22;19226;51.600;8.034;2023-07-13T12:09:17;25.80;99.90
32877;DHT22;19226;51.600;8.034;2023-07-13T12:12:03;25.80;99.90
32877;DHT22;19226;51.600;8.034;2023-07-13T12:14:51;25.70;99.90
32877;DHT22;19226;51.600;8.034;2023-07-13T12:17:36;25.60;99.90
32877;DHT22;19226;51.600;8.034;2023-07-13T12:23:23;25.70;99.90
32877;DHT22;19226;51.600;8.034;2023-07-13T12:26:09;25.70;99.90
32877;DHT22;19226;51.600;8.034;2023-07-13T12:28:56;25.80;99.90
32877;DHT22;19226;51.600;8.034;2023-07-13T12:31:46;26.10;99.90
32877;DHT22;19226;51.600;8.034;2023-07-13T12:34:31;26.20;99.90
32877;DHT22;19226;51.600;8.034;2023-07-13T12:37:15;26.40;99.90
32877;DHT22;19226;51.600;8.034;2023-07-13T12:40:00;26.50;99.90
32877;DHT22;19226;51.600;8.034;2023-07-13T12:42:47;26.50;99.90
32877;DHT22;19226;51.600;8.034;2023-07-13T12:45:33;26.60;99.90
32877;DHT22;19226;51.600;8.034;2023-07-13T12:48:17;26.80;99.90
32877;DHT22;19226;51.600;8.034;2023-07-13T12:51:02;26.90;99.90
32877;DHT22;19226;51.600;8.034;2023-07-13T12:53:49;27.10;99.90
32877;DHT22;19226;51.600;8.034;2023-07-13T12:56:34;27.10;99.90
32877;DHT22;19226;51.600;8.034;2023-07-13T12:59:21;27.30;99.90
32877;DHT22;19226;51.600;8.034;2023-07-13T13:02:22;27.30;99.90
32877;DHT22;19226;51.600;8.034;2023-07-13T13:05:13;27.30;99.90
32877;DHT22;19226;51.600;8.034;2023-07-13T13:07:58;27.40;99.90
32877;DHT22;19226;51.600;8.034;2023-07-13T13:10:43;27.40;99.50
32877;DHT22;19226;51.600;8.034;2023-07-13T13:13:29;27.20;99.90
32877;DHT22;19226;51.600;8.034;2023-07-13T13:16:34;27.30;99.90
32877;DHT22;19226;51.600;8.034;2023-07-13T13:19:23;27.50;99.90
32877;DHT22;19226;51.600;8.034;2023-07-13T13:22:08;27.70;99.90
32877;DHT22;19226;51.600;8.034;2023-07-13T13:24:52;27.80;98.20
32877;DHT22;19226;51.600;8.034;2023-07-13T13:27:37;27.80;97.80
32877;DHT22;19226;51.600;8.034;2023-07-13T13:30:30;27.70;94.90
32877;DHT22;19226;51.600;8.034;2023-07-13T13:33:17;27.60;94.80
32877;DHT22;19226;51.600;8.034;2023-07-13T13:36:02;27.50;95.70
32877;DHT22;19226;51.600;8.034;2023-07-13T13:38:48;27.50;97.10
32877;DHT22;19226;51.600;8.034;2023-07-13T13:41:33;27.60;98.30
32877;DHT22;19226;51.600;8.034;2023-07-13T13:44:18;27.80;98.40
32877;DHT22;19226;51.600;8.034;2023-07-13T13:47:03;27.80;96.50
32877;DHT22;19226;51.600;8.034;2023-07-13T13:49:47;27.80;97.50
32877;DHT22;19226;51.600;8.034;2023-07-13T13:52:32;27.90;98.30
32877;DHT22;19226;51.600;8.034;2023-07-13T13:55:19;27.90;98.40
32877;DHT22;19226;51.600;8.034;2023-07-13T13:58:04;28.00;97.90
32877;DHT22;19226;51.600;8.034;2023-07-13T14:00:48;27.80;97.00
32877;DHT22;19226;51.600;8.034;2023-07-13T14:03:34;27.80;97.70
32877;DHT22;19226;51.600;8.034;2023-07-13T14:06:19;27.90;96.50
32877;DHT22;19226;51.600;8.034;2023-07-13T14:09:08;28.00;97.20
32877;DHT22;19226;51.600;8.034;2023-07-13T14:11:53;28.00;95.80
32877;DHT22;19226;51.600;8.034;2023-07-13T14:14:38;28.00;95.70
32877;DHT22;19226;51.600;8.034;2023-07-13T14:17:25;28.00;96.30
32877;DHT22;19226;51.600;8.034;2023-07-13T14:20:12;27.50;99.90
32877;DHT22;19226;51.600;8.034;2023-07-13T14:22:56;26.60;99.90
32877;DHT22;19226;51.600;8.034;2023-07-13T14:25:42;25.50;99.90
32877;DHT22;19226;51.600;8.034;2023-07-13T14:28:27;25.00;99.90
32877;DHT22;19226;51.600;8.034;2023-07-13T14:31:15;24.50;99.90
32877;DHT22;19226;51.600;8.034;2023-07-13T14:33:59;24.20;99.90
32877;DHT22;19226;51.600;8.034;2023-07-13T14:36:49;24.00;99.90
32877;DHT22;19226;51.600;8.034;2023-07-13T14:39:33;23.70;99.90
32877;DHT22;19226;51.600;8.034;2023-07-13T14:42:18;23.30;99.90
32877;DHT22;19226;51.600;8.034;2023-07-13T14:45:02;22.80;99.90
32877;DHT22;19226;51.600;8.034;2023-07-13T14:47:47;22.80;99.90
32877;DHT22;19226;51.600;8.034;2023-07-13T14:50:32;22.60;99.90
32877;DHT22;19226;51.600;8.034;2023-07-13T14:53:19;22.30;99.90
32877;DHT22;19226;51.600;8.034;2023-07-13T14:56:13;22.10;99.90
32877;DHT22;19226;51.600;8.034;2023-07-13T14:58:59;21.90;99.90
32877;DHT22;19226;51.600;8.034;2023-07-13T15:01:43;21.80;99.90
32877;DHT22;19226;51.600;8.034;2023-07-13T15:04:29;21.60;99.90
32877;DHT22;19226;51.600;8.034;2023-07-13T15:07:14;21.60;99.90
32877;DHT22;19226;51.600;8.034;2023-07-13T15:09:59;21.80;99.90
32877;DHT22;19226;51.600;8.034;2023-07-13T15:12:44;21.80;99.90
32877;DHT22;19226;51.600;8.034;2023-07-13T15:15:31;21.70;99.90
32877;DHT22;19226;51.600;8.034;2023-07-13T15:18:19;21.80;99.90
32877;DHT22;19226;51.600;8.034;2023-07-13T15:21:11;21.90;99.90
32877;DHT22;19226;51.600;8.034;2023-07-13T15:24:00;22.00;99.90
32877;DHT22;19226;51.600;8.034;2023-07-13T15:26:45;22.10;99.90
32877;DHT22;19226;51.600;8.034;2023-07-13T15:29:33;22.20;99.90
32877;DHT22;19226;51.600;8.034;2023-07-13T15:32:17;22.30;99.90
32877;DHT22;19226;51.600;8.034;2023-07-13T15:35:03;22.40;99.90
32877;DHT22;19226;51.600;8.034;2023-07-13T15:37:49;22.50;99.90
32877;DHT22;19226;51.600;8.034;2023-07-13T15:40:34;22.60;99.90
32877;DHT22;19226;51.600;8.034;2023-07-13T15:43:19;22.50;99.90
32877;DHT22;19226;51.600;8.034;2023-07-13T15:46:04;22.50;99.90
32877;DHT22;19226;51.600;8.034;2023-07-13T15:48:50;22.40;99.90
32877;DHT22;19226;51.600;8.034;2023-07-13T15:51:36;22.40;99.90
32877;DHT22;19226;51.600;8.034;2023-07-13T15:54:20;22.50;99.90
32877;DHT22;19226;51.600;8.034;2023-07-13T15:57:09;22.50;99.90
32877;DHT22;19226;51.600;8.034;2023-07-13T15:59:56;22.40;99.90
32877;DHT22;19226;51.600;8.034;2023-07-13T16:02:40;22.30;99.90
32877;DHT22;19226;51.600;8.034;2023-07-13T16:05:25;22.20;99.90
32877;DHT22;19226;51.600;8.034;2023-07-13T16:08:25;22.10;99.90
32877;DHT22;19226;51.600;8.034;2023-07-13T16:11:23;22.10;99.90
32877;DHT22;19226;51.600;8.034;2023-07-13T16:14:12;22.00;99.90
32877;DHT22;19226;51.600;8.034;2023-07-13T16:16:58;21.80;99.90
32877;DHT22;19226;51.600;8.034;2023-07-13T16:19:43;21.60;99.90
32877;DHT22;19226;51.600;8.034;2023-07-13T16:22:28;21.60;99.90
32877;DHT22;19226;51.600;8.034;2023-07-13T16:25:20;21.60;99.90
32877;DHT22;19226;51.600;8.034;2023-07-13T16:28:06;21.70;99.90
32877;DHT22;19226;51.600;8.034;2023-07-13T16:30:51;21.80;99.90
32877;DHT22;19226;51.600;8.034;2023-07-13T16:33:36;21.90;99.90
32877;DHT22;19226;51.600;8.034;2023-07-13T16:36:20;21.90;99.90
32877;DHT22;19226;51.600;8.034;2023-07-13T16:39:11;22.00;99.90
32877;DHT22;19226;51.600;8.034;2023-07-13T16:41:58;21.90;99.90
32877;DHT22;19226;51.600;8.034;2023-07-13T16:44:43;21.90;99.90
32877;DHT22;19226;51.600;8.034;2023-07-13T16:47:28;21.90;99.90
32877;DHT22;19226;51.600;8.034;2023-07-13T16:50:21;21.90;99.90
32877;DHT22;19226;51.600;8.034;2023-07-13T16:53:20;21.90;99.90
32877;DHT22;19226;51.600;8.034;2023-07-13T16:56:15;21.90;99.90
32877;DHT22;19226;51.600;8.034;2023-07-13T16:59:01;21.80;99.90
32877;DHT22;19226;51.600;8.034;2023-07-13T17:01:46;21.70;99.90
32877;DHT22;19226;51.600;8.034;2023-07-13T17:04:31;21.50;99.90
32877;DHT22;19226;51.600;8.034;2023-07-13T17:07:17;21.40;99.90
32877;DHT22;19226;51.600;8.034;2023-07-13T17:10:16;21.40;99.90
32877;DHT22;19226;51.600;8.034;2023-07-13T17:13:04;21.40;99.90
32877;DHT22;19226;51.600;8.034;2023-07-13T17:15:51;21.40;99.90
32877;DHT22;19226;51.600;8.034;2023-07-13T17:18:40;21.40;99.90
32877;DHT22;19226;51.600;8.034;2023-07-13T17:21:25;21.40;99.90
32877;DHT22;19226;51.600;8.034;2023-07-13T17:24:18;21.40;99.90
32877;DHT22;19226;51.600;8.034;2023-07-13T17:27:03;21.20;99.90
32877;DHT22;19226;51.600;8.034;2023-07-13T17:29:48;21.10;99.90
32877;DHT22;19226;51.600;8.034;2023-07-13T17:32:34;21.10;99.90
32877;DHT22;19226;51.600;8.034;2023-07-13T17:35:21;20.90;99.90
32877;DHT22;19226;51.600;8.034;2023-07-13T17:38:07;20.70;99.90
32877;DHT22;19226;51.600;8.034;2023-07-13T17:40:52;20.50;99.90
32877;DHT22;19226;51.600;8.034;2023-07-13T17:43:37;20.40;99.90
32877;DHT22;19226;51.600;8.034;2023-07-13T17:46:28;20.40;99.90
32877;DHT22;19226;51.600;8.034;2023-07-13T17:49:21;20.40;99.90
32877;DHT22;19226;51.600;8.034;2023-07-13T17:52:13;20.40;99.90
32877;DHT22;19226;51.600;8.034;2023-07-13T17:55:04;20.40;99.90
32877;DHT22;19226;51.600;8.034;2023-07-13T17:57:52;20.40;99.90
32877;DHT22;19226;51.600;8.034;2023-07-13T18:00:38;20.30;99.90
32877;DHT22;19226;51.600;8.034;2023-07-13T18:03:26;20.20;99.90
32877;DHT22;19226;51.600;8.034;2023-07-13T18:06:37;20.00;99.90
32877;DHT22;19226;51.600;8.034;2023-07-13T18:09:23;19.90;99.90